Juan Martinez

Recruteur en chef - Guarani
25 Déc 2027
Samedi
Processus

Personnalité

Adaptabilité (7) Ambition (12) Controverse (3) Loyauté (20) Pression (14) Professionnalisme (3) Sportivité (18) Tempérament (11)

Profil

Style d'entraînement Démocratique
Diplôme Continental C
Détermination 10
Gestion des joueurs 11
Motivation 5
Discipline 9
Satisfaction professionnelle
100%
Fatigue
0%
Rôle Recruteur en chef
Salaire 47.9K p/s
Contrat 14.03.2028

Performance

Comportement Bon
Efficacité de l'entraînement
26%
Développement des joueurs
40%
Prévention des blessures
45%
Mise en place tactique
20%

Événements récents

A recommandé une cible de transfert maintenant
A recommandé une cible de transfert maintenant
A recommandé une cible de transfert maintenant
A recommandé une cible de transfert maintenant
A recommandé une cible de transfert maintenant
A recommandé une cible de transfert maintenant
Négociation de contrat entamée maintenant
Négociation de contrat entamée maintenant

Suivi en cours

282
Joueur Club Statut Capacité Confiance Observé Dernière observation Dernier vote
Emanuel Kovacs Sol de America Actif 88 / 96 83% 1 20.12.2027 Approuver
Tiago Gordillo San Miguel Actif 85 / 100 40% 8 30.11.2027 -
Agustín Obregón River Plate Actif 111 / 123 40% 3 30.11.2027 -
Inti Borghetto Patronato Actif 92 / 102 40% 2 30.11.2027 -
Dilan Godoy Vélez Actif 114 / 127 40% 10 29.11.2027 -
Nicolás Azambuja Danubio Actif 116 / 127 40% 4 29.11.2027 -
Felipe Obradovich Gimnasia La Plata Actif 109 / 120 40% 4 29.11.2027 -
Gideon Manaseh Ikorodu City Actif 93 / 115 40% 4 28.11.2027 -
Matías Acevedo Racing Club Actif 105 / 123 40% 3 28.11.2027 -
Austine Odongo Shabana Actif 78 / 94 40% 1 28.11.2027 -
Tiziano Noriega Tristán Suárez Actif 91 / 104 40% 5 27.11.2027 -
Luka Andrade Montevideo City Torque Actif 101 / 117 40% 2 27.11.2027 -
Ignacio Alastra Talleres Actif 101 / 102 40% 1 27.11.2027 -
Diego León Manchester United Actif 118 / 121 40% 2 25.11.2027 -
Chinedu Nwosu Bendel Insurance Actif 84 / 94 40% 2 25.11.2027 -
Franco Minerva Platense Actif 115 / 129 40% 4 25.11.2027 -
Iván Barbona Colón Actif 94 / 108 40% 3 25.11.2027 -
Emiliano Zambrano Gimnasia y Esgrima Actif 93 / 96 40% 5 24.11.2027 -
Juan Camilo Córdoba Deportivo Pereira Actif 88 / 93 40% 3 24.11.2027 -
Mateo Silvetti Inter Miami CF Actif 123 / 124 40% 7 23.11.2027 -
Halam Loboa Independiente Medellin Actif 118 / 127 40% 3 23.11.2027 -
Joel Ezra Enyimba Actif 97 / 94 40% 4 21.11.2027 -
Emmanuel Ndubueze Shooting Stars Actif 83 / 105 40% 3 21.11.2027 -
Luis Yanes Real Cartagena Actif 92 / 106 40% 4 19.11.2027 -
Diogo Guzmán Montevideo City Torque Actif 115 / 120 40% 6 18.11.2027 -
Felix Mosquera Deportes Quindio Actif 94 / 88 40% 3 18.11.2027 -
Valentino Acuña Newell's Old Boys Actif 111 / 120 40% 3 17.11.2027 -
Wilfred Correa Caracas Actif 97 / 101 40% 3 17.11.2027 -
Mateo Peralta Danubio Actif 115 / 121 40% 6 16.11.2027 -
Dylan Salvo Defensores Unidos Actif 97 / 109 40% 3 16.11.2027 -
Thiago Szkaluba Santiago Wanderers Actif 92 / 103 40% 7 16.11.2027 -
Mateo Pérez Curci Independiente Actif 115 / 119 40% 3 15.11.2027 -
Olaniyi Saheed Kwara United Actif 96 / 82 40% 3 15.11.2027 -
Celías Ingenthron Platense Actif 111 / 129 40% 1 15.11.2027 -
Nahuel Leivas Montevideo City Torque Actif 104 / 115 40% 4 14.11.2027 -
Sebastián Ramírez America de Cali Actif 107 / 123 40% 4 13.11.2027 -
Elkín Morales Universitario Popayan Actif 79 / 79 40% 2 13.11.2027 -
Biel La Equidad Actif 119 / 127 40% 1 13.11.2027 -
Joel Medina Independiente Actif 110 / 114 40% 2 12.11.2027 -
Mateo Aguiar Defensa y Justicia Actif 109 / 123 40% 5 09.11.2027 -
Chimobi Igwilo Rangers International Actif 95 / 102 40% 5 09.11.2027 -
Sunday Aniebet Enyimba Actif 94 / 108 40% 5 07.11.2027 -
Tiago Borquez Gimnasia y Tiro Actif 83 / 91 40% 4 07.11.2027 -
Alex Amaefula Kun Khalifat Actif 80 / 102 40% 2 06.11.2027 -
Abdulrahman Hamisu Niger Tornadoes Actif 84 / 104 40% 1 06.11.2027 -
Gonzalo Gelini Boca Juniors Actif 116 / 133 40% 2 05.11.2027 -
Nazareno Roselli Defensa y Justicia Actif 117 / 114 40% 3 03.11.2027 -
Hassan Beja AFC Leopards Actif 84 / 89 40% 1 03.11.2027 -
Onuorah Onyedika Kun Khalifat Actif 86 / 82 40% 3 31.10.2027 -
Luca Regiardo Newell's Old Boys Actif 108 / 108 40% 7 26.10.2027 -
Sergio Casseres Llaneros Actif 79 / 93 40% 1 25.10.2027 -
Oskar Spiten-Nysæter Molde Actif 120 / 131 40% 3 21.10.2027 -
Esteban de Lima Tacuarembo Actif 91 / 98 40% 3 20.10.2027 -
Sheriff Amuda Shooting Stars Actif 87 / 85 40% 1 20.10.2027 -
Kaick FC Dallas Actif 100 / 122 40% 1 20.10.2027 -
Abubakar Garba Nasarawa United Actif 97 / 109 40% 3 19.10.2027 -
Mlindelwa Nyanisa APS Bomet Actif 70 / 57 40% 1 19.10.2027 -
Jonatan Resquin Quilmes Actif 85 / 103 40% 4 18.10.2027 -
Sergio Castillo Cortulua Actif 107 / 117 40% 9 18.10.2027 -
Jhon Renteria Sarmiento Actif 110 / 119 40% 3 15.10.2027 -
Fabian Sanchez Llaneros Actif 77 / 69 40% 1 15.10.2027 -
Facundo Balatti Penarol Actif 102 / 107 40% 2 10.10.2027 -
Lautaro Ávila Racing Actif 95 / 99 40% 2 09.10.2027 -
Tomás Parmo River Plate Actif 120 / 133 40% 1 09.10.2027 -
Chibueze Oputa Rangers International Actif 84 / 91 40% 1 09.10.2027 -
Tiziano Cabrera Central Norte Actif 89 / 99 40% 4 05.10.2027 -
Agustín Medina Lanús Actif 117 / 134 40% 2 04.10.2027 -
Lucas Barrientos Los Andes Actif 97 / 112 40% 1 04.10.2027 -
Didier Dawson Envigado Actif 106 / 119 40% 2 28.09.2027 -
Julián Bragado Morón Actif 80 / 93 40% 1 27.09.2027 -
Geanfranco Rodríguez Defensor Sporting Actif 91 / 109 40% 1 15.09.2027 -
Camilo Rey Domenech Racing Club Actif 117 / 126 40% 1 07.09.2027 -
José Recalde Libertad Actif 92 / 84 79% 1 12.07.2027 Approuver
Estifen Díaz Libertad Actif 94 / 95 79% 1 06.06.2027 Approuver
Caio Vidal FC Copenhagen Négociation 128 / 129 63% 1 01.06.2027 Approuver
Gladson Sulemana Liberty Professionals Actif 91 / 120 40% 3 30.05.2027 -
Mfundo Vilakazi Kaizer Chiefs Actif 116 / 121 40% 3 30.05.2027 -
Alphadjo Cissé Pisa Actif 132 / 143 40% 4 30.05.2027 -
Abraham Paintsil Hasaacas Actif 94 / 98 40% 3 29.05.2027 -
Jofre Torrents Ajax Actif 122 / 130 40% 3 29.05.2027 -
Facundo Di Biasi Getafe Actif 117 / 108 40% 1 29.05.2027 -
Stevan Manuel Benfica Actif 90 / 111 40% 1 26.05.2027 -
Jonathan De Irastorza Levante Actif 127 / 140 40% 6 25.05.2027 -
Amine Moussaoui Angers SCO Actif 98 / 97 40% 3 25.05.2027 -
Jay Robinson Southampton Actif 126 / 136 40% 1 25.05.2027 -
Kamarni Ryan Salford City Actif 94 / 99 40% 4 24.05.2027 -
Caleb Yirenkyi Coventry City Actif 144 / 128 40% 5 24.05.2027 -
Ishmael Addo Heart of Lions Actif 88 / 109 40% 4 22.05.2027 -
Sidiki Chérif Coventry City Actif 119 / 128 40% 2 20.05.2027 -
Christos Mouzakitis Hull City Actif 131 / 141 40% 3 17.05.2027 -
Sam Curtis Swindon Town Actif 93 / 111 40% 2 16.05.2027 -
Manu Rodríguez Gijón Actif 103 / 100 40% 3 16.05.2027 -
Dani Díaz Real Sociedad Actif 112 / 113 40% 3 15.05.2027 -
Ronwen Khune Black Aces Actif 88 / 83 40% 2 15.05.2027 -
Othmane Maamma Watford Actif 126 / 133 40% 10 14.05.2027 -
Monty Batlhabane Polokwane City Actif 106 / 82 40% 2 14.05.2027 -
Sindre Walle Egeli Nottingham Forest Actif 139 / 151 40% 3 13.05.2027 -
Shea Lacey Millwall Actif 116 / 131 40% 1 13.05.2027 -
Jeremías Merlo AC Milan Actif 125 / 144 40% 1 13.05.2027 -
Bazoumana Touré Newcastle United Actif 145 / 124 40% 7 12.05.2027 -
Maeson King Blackpool Actif 112 / 97 40% 2 12.05.2027 -
André Miranda Porto Actif 102 / 105 40% 1 12.05.2027 -
Martim Cunha Porto Actif 103 / 91 40% 3 11.05.2027 -
Luther Lorch Free State Stars Actif 90 / 108 40% 2 07.05.2027 -
Tobías Ramírez Sevilla Actif 118 / 116 40% 2 06.05.2027 -
Diego Gaitán Maipú Actif 106 / 108 40% 1 06.05.2027 -
Marco Oroná Antofagasta Actif 100 / 103 40% 1 06.05.2027 -
Nicolás Rojas Banfield Actif 100 / 115 40% 1 06.05.2027 -
Tomás Aranda Boca Juniors Actif 109 / 113 40% 4 04.05.2027 -
Lucas Høgsberg Paris Saint-Germain Actif 132 / 120 40% 1 03.05.2027 -
Juan David Arizala Udinese Actif 125 / 121 40% 1 02.05.2027 -
Oumar Camara Vitoria Guimaraes Actif 126 / 150 40% 2 30.04.2027 -
Bradley Zwane SuperSport United Actif 105 / 105 40% 2 27.04.2027 -
Luke Baartman Bidvest Wits Actif 108 / 117 40% 1 26.04.2027 -
Gonçalo Oliveira Benfica Actif 107 / 122 40% 1 24.04.2027 -
Lucas Agazzi Defensor Sporting Actif 121 / 118 40% 1 24.04.2027 -
Araphat Mohammed Medeama Actif 94 / 111 40% 3 23.04.2027 -
Gorka Gorosabel Real Sociedad Actif 112 / 117 40% 2 17.04.2027 -
Joseph Liteta Parma Actif 100 / 93 40% 1 17.04.2027 -
Daniel Awuni Aduana Stars Actif 90 / 109 40% 2 16.04.2027 -
Jayden Luker Newport County Actif 94 / 97 40% 3 15.04.2027 -
Asanele Bonani Chippa United Actif 85 / 77 40% 2 13.04.2027 -
Alex Verón Villarreal Actif 110 / 128 40% 2 13.04.2027 -
Oscar Schwartau Norwich City Actif 117 / 114 40% 3 12.04.2027 -
Leandro Martins Benfica Actif 86 / 94 40% 1 12.04.2027 -
Dramane Kamagaté USM Alger Actif 106 / 101 40% 1 11.04.2027 -
Benjamin Tsivanyo Aduana Stars Actif 92 / 82 40% 1 23.02.2027 -
George Paaku Hearts of Oak Actif 90 / 102 40% 1 22.02.2027 -
Ignacio Perruzzi Celta Actif 121 / 140 40% 1 21.02.2027 -
Facundo Sánchez Los Andes Actif 84 / 105 40% 1 19.02.2027 -
Lander Astiazarán Real Sociedad Actif 104 / 129 40% 3 17.02.2027 -
Riley Owen Wycombe Wanderers Actif 106 / 93 40% 1 17.02.2027 -
Luther Ngcobo Ajax Cape Town Actif 99 / 122 40% 2 15.02.2027 -
Simphiwe Selepe Orlando Pirates Actif 110 / 123 40% 1 09.02.2027 -
Zack Nelson Walsall Actif 103 / 103 40% 1 09.02.2027 -
Nestory Irankunda Watford Actif 118 / 119 40% 1 01.02.2027 -
Mateo Klimowicz Cerro Porteno Actif 109 / 105 76% 1 28.12.2026 Approuver
Juan Patiño Sol de America Actif 113 / 118 76% 1 02.12.2026 Approuver
Vicente Poggi Godoy Cruz Actif 123 / 127 40% 1 30.11.2026 -
Manuel Duarte Barracas Central Actif 122 / 123 40% 1 30.11.2026 -
Franco Zapiola Platense Actif 120 / 117 40% 1 30.11.2026 -
Dylan Gorosito Boca Juniors Actif 110 / 126 40% 4 29.11.2026 -
Valentino Huertas Morón Actif 87 / 111 40% 2 29.11.2026 -
Tomás Escalante Plaza Colonia Actif 121 / 119 40% 1 29.11.2026 -
Alejo Gelsomino Gimnasia La Plata Actif 98 / 100 40% 3 25.11.2026 -
Xavier Biscayzacú Sporting CP Actif 126 / 110 40% 2 25.11.2026 -
Gonzalo Lobos Lanús Actif 98 / 101 40% 1 25.11.2026 -
El Hadji Malick Diouf Brentford Actif 135 / 160 40% 3 23.11.2026 -
Alexis González Lanús Actif 102 / 106 40% 1 23.11.2026 -
Santiago Segovia Rosario Central Actif 109 / 117 40% 3 22.11.2026 -
Sebastián Flores Rayo Vallecano Actif 93 / 104 40% 1 22.11.2026 -
Santiago Espíndola River Plate Actif 96 / 118 40% 4 21.11.2026 -
Joel Flecha Barracas Central Actif 89 / 90 40% 2 21.11.2026 -
Lautaro Mora Huracán Actif 105 / 102 40% 3 20.11.2026 -
Ethan Mbappé LOSC Lille Actif 140 / 146 40% 1 20.11.2026 -
Alan Coria Defensa y Justicia Actif 95 / 112 40% 1 19.11.2026 -
Bautista Carboni Defensores Unidos Actif 104 / 108 40% 3 18.11.2026 -
Jhon Aponza Boca Juniors Actif 110 / 112 40% 1 17.11.2026 -
Galo Galarza Estudiantes Actif 101 / 97 40% 1 17.11.2026 -
Francisco Lencinas Patronato Actif 92 / 117 40% 1 17.11.2026 -
Joaquín Pereyra Estudiantes Actif 93 / 109 40% 1 17.11.2026 -
Mauro Carrizo Atlético Tucumán Actif 95 / 102 40% 3 14.11.2026 -
Matías Fernández-Pardo Newcastle United Actif 148 / 128 40% 1 14.11.2026 -
Alan Forneris Racing Club Actif 113 / 113 40% 2 12.11.2026 -
Guillermo Abregú Atlético Tucumán Actif 93 / 102 40% 2 12.11.2026 -
Ramiro Martino Independiente Actif 90 / 107 40% 1 12.11.2026 -
Mariano Gerez Lanús Actif 98 / 97 40% 1 11.11.2026 -
Agustín Falcón Belgrano Actif 95 / 88 40% 1 09.11.2026 -
Facundo Gulli San Lorenzo Actif 120 / 134 40% 1 08.11.2026 -
Francisco Cuzzani Ferro Carril Oeste Actif 96 / 111 40% 4 07.11.2026 -
Matías Cantero All Boys Actif 91 / 105 40% 2 07.11.2026 -
Jhoan Merino Racing Club Actif 88 / 84 40% 1 07.11.2026 -
Artem Slesar Zorya Actif 104 / 93 40% 1 07.11.2026 -
Lautaro Díaz San Martín Actif 86 / 90 40% 3 04.11.2026 -
Leonel Flores Boca Juniors Actif 92 / 113 40% 2 04.11.2026 -
Alexei Dominguez Pachuca Actif 111 / 132 40% 2 04.11.2026 -
Maximiliano Duarte Independiente Actif 100 / 108 40% 2 03.11.2026 -
Thiago Silvero Sevilla Actif 122 / 149 40% 1 03.11.2026 -
Kelvin Yeboah Minnesota United FC Actif 129 / 136 40% 1 30.10.2026 -
Emi Rodriguez Leon Actif 122 / 132 40% 1 30.10.2026 -
Darío Ramírez Real Sociedad Actif 99 / 103 40% 1 30.10.2026 -
Franco Basualdo Estudiantes Actif 95 / 101 40% 2 29.10.2026 -
Ramiro Vitale Racing Club Actif 86 / 92 40% 2 24.10.2026 -
Adrián Vega Gimnasia y Tiro Actif 83 / 84 40% 2 24.10.2026 -
Ramiro Montenegro Defensa y Justicia Actif 81 / 94 40% 1 24.10.2026 -
Matías Gómez Valencia Actif 103 / 103 40% 1 24.10.2026 -
Iarley Alayo Huracán Actif 79 / 92 40% 1 23.10.2026 -
Enzo Guerrero Huracán Actif 91 / 87 40% 2 22.10.2026 -
Paolo Dorini Central Norte Actif 86 / 98 40% 2 21.10.2026 -
Gonzalo Escudero Racing Club Actif 103 / 115 40% 3 20.10.2026 -
Santiago Luna Quilmes Actif 85 / 84 40% 1 19.10.2026 -
Conrado Martínez Ferro Carril Oeste Actif 87 / 84 40% 2 17.10.2026 -
Facundo Piozzi Rosario Central Actif 91 / 94 40% 1 17.10.2026 -
Santiago Ruiz Alvarado Actif 87 / 94 40% 2 16.10.2026 -
Braian Cabral Madryn Actif 79 / 87 40% 1 16.10.2026 -
Bautista Mamousse Chacarita Juniors Actif 79 / 83 40% 1 16.10.2026 -
Fabián Báez Almirante Brown Actif 71 / 73 40% 1 15.10.2026 -
Demian Rea Banfield Actif 99 / 106 40% 1 15.10.2026 -
Santiago Cortes Atlético Tucumán Actif 88 / 89 40% 1 14.10.2026 -
Lautaro Aranda Independiente Rivadavia Actif 92 / 89 40% 1 14.10.2026 -
Valentino Massi Sarmiento Actif 97 / 112 40% 5 12.10.2026 -
César Galíndez Belgrano Actif 86 / 85 40% 3 12.10.2026 -
Juan Pablo Posse Atlético Tucumán Actif 88 / 104 40% 1 12.10.2026 -
Francisco Razzeto Sarmiento Actif 89 / 107 40% 1 11.10.2026 -
Aaron Vera Maipú Actif 91 / 92 40% 2 06.10.2026 -
Joaquín Rivero Instituto Actif 86 / 107 40% 1 05.10.2026 -
Abel Galbán Colón Actif 91 / 90 40% 2 04.10.2026 -
Robert FC Copenhagen Actif 132 / 124 40% 2 03.10.2026 -
Thiago Villalba Vélez Actif 88 / 95 40% 2 02.10.2026 -
Lautaro Kapij Ferro Carril Oeste Actif 83 / 87 40% 1 01.10.2026 -
Tiago Esidín Ferro Carril Oeste Actif 96 / 96 40% 2 30.09.2026 -
Joaquín Parras Independiente Actif 94 / 106 40% 1 30.09.2026 -
Santiago Medina Huracán Actif 98 / 110 40% 1 29.09.2026 -
Aaron Centurión Vélez Actif 94 / 106 40% 1 27.09.2026 -
Luca Landriel Maipú Actif 82 / 87 40% 1 27.09.2026 -
Marcos López Banfield Actif 102 / 105 40% 1 24.09.2026 -
Ariel Imperial Almirante Brown Actif 81 / 86 40% 1 24.09.2026 -
Thiago Ponce Rosario Central Actif 102 / 91 40% 1 23.09.2026 -
Branco Ripoll Aldosivi Actif 92 / 90 40% 1 23.09.2026 -
Ignacio Gentile San Telmo Actif 90 / 100 40% 1 21.09.2026 -
Tiziano Croci Vélez Actif 98 / 106 40% 1 21.09.2026 -
Mateo Cirigliano Almagro Actif 83 / 93 40% 1 19.09.2026 -
Lautaro Lobo San Telmo Actif 89 / 93 40% 1 18.09.2026 -
Tadeo Polli San Martín Actif 91 / 98 40% 2 17.09.2026 -
Matías Calegari Boca Juniors Actif 90 / 108 40% 1 17.09.2026 -
Laureano Paez Colón Actif 86 / 89 40% 3 15.09.2026 -
Bautista Maillier Colón Actif 90 / 106 40% 1 15.09.2026 -
Tomás Perri Colegiales Actif 79 / 96 40% 1 14.09.2026 -
Ignacio Vázquez Lanús Actif 75 / 90 40% 1 14.09.2026 -
Bautista La Licata Belgrano Actif 85 / 91 40% 1 14.09.2026 -
Agustín Campos All Boys Actif 85 / 82 40% 1 14.09.2026 -
Agustín Alvez San Lorenzo Actif 86 / 100 40% 1 14.09.2026 -
Mariano Bracamonte Deportivo Riestra Actif 115 / 111 40% 1 14.09.2026 -
Lucas Souto Defensa y Justicia Actif 129 / 129 40% 1 13.09.2026 -
Facundo Kalinger Huracán Actif 107 / 110 40% 2 08.09.2026 -
Bénie Traoré New York City Actif 115 / 138 40% 1 08.09.2026 -
Jorge Espejo Universidad de Concepcion Actif 107 / 119 40% 1 08.09.2026 -
Antonio Galeano Remo Stars Actif 122 / 127 40% 1 08.09.2026 -
Matías Magdaleno Estudiantes Actif 92 / 106 40% 1 08.09.2026 -
Gerónimo Miranda San Telmo Actif 81 / 103 40% 1 08.09.2026 -
Mateo Acuña Vélez Actif 95 / 106 40% 1 08.09.2026 -
Braian Morales Boca Juniors Actif 87 / 94 40% 1 05.09.2026 -
Pedro Dacrema Independiente Rivadavia Actif 90 / 85 40% 4 04.09.2026 -
Agustín Gálvez Atlético Tucumán Actif 89 / 95 40% 1 04.09.2026 -
Julián Scafati Independiente Actif 87 / 111 40% 1 04.09.2026 -
Tomás Bustos Atlético Tucumán Actif 88 / 102 40% 1 02.09.2026 -
Ramiro Paunero Atlético Tucumán Actif 85 / 107 40% 2 01.09.2026 -
Lautaro Bianco Boca Juniors Actif 96 / 105 40% 1 01.09.2026 -
Alan Falkiewicz San Telmo Actif 82 / 83 40% 1 01.09.2026 -
Rodrigo Stocco Temperley Actif 92 / 101 40% 1 01.09.2026 -
Martín Ortega Atlético Tucumán Actif 85 / 107 40% 1 30.08.2026 -
Mateo Casas Belgrano Actif 87 / 84 40% 1 30.08.2026 -
Bautista González Defensores Actif 83 / 82 40% 1 29.08.2026 -
Uriel Perpetto Patronato Actif 95 / 100 40% 2 28.08.2026 -
Facundo Carrizo Argentinos Juniors Actif 96 / 98 40% 1 27.08.2026 -
Joel Godoy Sarmiento Actif 106 / 126 40% 1 26.08.2026 -
Marco Vicente Rosario Central Actif 90 / 90 40% 1 25.08.2026 -
Leonardo Ríos Rosario Central Actif 89 / 83 40% 1 25.08.2026 -
Thiago Alvez Independiente Actif 110 / 105 40% 1 24.08.2026 -
Tiago Marghetich Quilmes Actif 98 / 108 40% 1 23.08.2026 -
Lautaro Valdovinos Mitre Actif 77 / 90 40% 1 23.08.2026 -
Lucas Flores River Plate Actif 85 / 86 40% 1 21.08.2026 -
Joaquín Espina Rosario Central Actif 81 / 88 40% 2 18.08.2026 -
Jonathan Ledesma Platense Actif 81 / 104 40% 1 18.08.2026 -
Maximiliano Soria River Plate Actif 88 / 90 40% 1 17.08.2026 -
Lautaro Jaimes Vélez Actif 89 / 99 40% 1 16.08.2026 -
Alexis Yegros Racing Club Actif 83 / 83 40% 1 15.08.2026 -
Santino Cavagna Sarmiento Actif 78 / 100 40% 1 15.08.2026 -
Thiago Omar Pérez Huracán Actif 88 / 95 40% 1 15.08.2026 -
Felipe Schaare Racing Club Actif 94 / 97 40% 1 14.08.2026 -
Mateo Muñoz Vélez Actif 90 / 91 40% 1 14.08.2026 -
Mario Alvarado Sarmiento Actif 83 / 91 40% 1 14.08.2026 -
Felipe Tempone Independiente Actif 82 / 99 40% 1 11.08.2026 -
Mateo Brignani Alvarado Actif 82 / 97 40% 1 11.08.2026 -
Román González San Telmo Actif 89 / 96 40% 1 11.08.2026 -
Deyvis Jallaza Estudiantes Actif 79 / 87 40% 2 10.08.2026 -
Lucas Varela Defensa y Justicia Actif 90 / 101 40% 1 10.08.2026 -
Tiago Franco Independiente Actif 84 / 101 40% 1 10.08.2026 -
Tomás Luna San Telmo Actif 92 / 90 40% 1 10.08.2026 -
Lautaro Lucero Ferro Carril Oeste Actif 85 / 104 40% 1 10.08.2026 -
Ivo Brian Belgrano Actif 88 / 96 40% 1 06.08.2026 -
Peio Canales Athletic Bilbao Actif 138 / 115 40% 1 01.08.2026 -